Time;durP1;ratioP1;P1;durP2;ratioP2;P2;SDS_P1;SDS_P2;PMS_P1;PMS_P2;Temp;Humidity;BMP_temperature;BMP_pressure;BME280_temperature;BME280_humidity;BME280_pressure;Samples;Min_cycle;Max_cycle;Signal;HPM_P1;HPM_P2
2022/05/08 00:01:12;;;;;;;10.30;1.75;;;8.00;99.90;;;;;;4806255;29;20130;-86
2022/05/08 00:03:38;;;;;;;7.38;1.23;;;8.30;99.90;;;;;;4805332;29;20058;-85
2022/05/08 00:06:10;;;;;;;4.47;0.70;;;7.50;99.90;;;;;;4810532;29;20051;-86
2022/05/08 00:08:36;;;;;;;6.10;1.52;;;7.80;99.90;;;;;;4808026;29;20131;-87
2022/05/08 00:11:02;;;;;;;9.05;1.50;;;7.50;99.90;;;;;;4815572;29;20050;-87
2022/05/08 00:13:30;;;;;;;3.00;1.02;;;7.40;99.90;;;;;;4807835;29;20047;-87
2022/05/08 00:15:56;;;;;;;6.30;1.25;;;7.80;99.90;;;;;;4805572;29;20121;-87
2022/05/08 00:18:23;;;;;;;8.18;1.50;;;7.40;99.90;;;;;;4789874;29;20441;-88
2022/05/08 00:20:49;;;;;;;12.25;1.42;;;7.40;99.90;;;;;;4805894;29;20467;-87
2022/05/08 00:23:14;;;;;;;3.47;1.27;;;7.40;99.90;;;;;;4805603;29;20126;-87
2022/05/08 00:25:40;;;;;;;9.52;1.02;;;8.30;99.90;;;;;;4812126;29;20094;-87
2022/05/08 00:28:06;;;;;;;3.25;0.93;;;6.80;99.90;;;;;;4805406;29;20059;-88
2022/05/08 00:30:31;;;;;;;5.78;1.10;;;7.40;99.90;;;;;;4788943;29;20094;-87
2022/05/08 00:32:58;;;;;;;4.35;0.80;;;6.90;99.90;;;;;;4773191;29;20046;-89
2022/05/08 00:35:24;;;;;;;5.55;1.08;;;7.40;99.90;;;;;;4811399;29;20052;-88
2022/05/08 00:37:49;;;;;;;3.38;0.90;;;7.40;99.90;;;;;;4806041;29;20059;-90
2022/05/08 00:40:15;;;;;;;5.60;1.15;;;8.00;99.90;;;;;;4805140;29;20055;-88
2022/05/08 00:42:42;;;;;;;4.63;0.90;;;8.40;99.90;;;;;;4804832;29;20066;-89
2022/05/08 00:45:09;;;;;;;7.18;1.00;;;7.30;99.90;;;;;;4805519;29;20145;-88
2022/05/08 00:47:35;;;;;;;3.75;1.05;;;7.40;99.90;;;;;;4805039;29;20054;-87
2022/05/08 00:50:01;;;;;;;9.25;1.20;;;6.50;99.90;;;;;;4814685;29;20061;-86
2022/05/08 00:52:29;;;;;;;8.23;1.27;;;7.40;99.90;;;;;;4793333;29;20082;-88
2022/05/08 00:54:55;;;;;;;6.63;1.00;;;7.70;99.90;;;;;;4812455;29;20055;-89
2022/05/08 00:57:21;;;;;;;6.65;1.13;;;8.00;99.90;;;;;;4816724;29;20559;-87
2022/05/08 00:59:47;;;;;;;7.70;1.05;;;8.00;99.90;;;;;;4790740;29;20051;-87
2022/05/08 01:02:12;;;;;;;3.03;0.88;;;7.40;99.90;;;;;;4788671;29;20058;-88
2022/05/08 01:04:38;;;;;;;4.25;1.40;;;7.30;99.90;;;;;;4788751;29;20134;-90
2022/05/08 01:07:04;;;;;;;4.38;0.82;;;8.20;99.90;;;;;;4811881;29;20067;-88
2022/05/08 01:09:30;;;;;;;7.88;1.15;;;7.80;99.90;;;;;;4811192;29;20063;-87
2022/05/08 01:11:56;;;;;;;5.80;0.80;;;7.90;99.90;;;;;;4814876;29;20106;-87
2022/05/08 01:14:22;;;;;;;9.43;1.48;;;7.30;99.90;;;;;;4788876;29;20096;-86
2022/05/08 01:16:47;;;;;;;2.58;0.70;;;7.30;99.90;;;;;;4804953;29;20054;-85
2022/05/08 01:19:13;;;;;;;2.35;0.98;;;8.10;99.90;;;;;;4796316;29;20412;-85
2022/05/08 01:21:41;;;;;;;2.88;0.80;;;7.30;99.90;;;;;;4808967;29;20524;-86
2022/05/08 01:24:08;;;;;;;4.70;0.73;;;7.60;99.90;;;;;;4804591;29;20137;-86
2022/05/08 01:26:34;;;;;;;5.03;1.05;;;7.20;99.90;;;;;;4809969;29;20096;-86
2022/05/08 01:29:00;;;;;;;3.40;0.85;;;7.70;99.90;;;;;;4790069;29;20179;-85
2022/05/08 01:31:26;;;;;;;2.25;0.75;;;7.30;99.90;;;;;;4795049;29;20059;-87
2022/05/08 01:33:52;;;;;;;5.13;0.90;;;7.80;99.90;;;;;;4804875;29;20398;-86
2022/05/08 01:36:18;;;;;;;5.18;0.70;;;7.90;99.90;;;;;;4811931;29;20125;-86
2022/05/08 01:38:43;;;;;;;6.18;1.88;;;7.70;99.90;;;;;;4805161;29;20055;-86
2022/05/08 01:41:09;;;;;;;7.28;0.90;;;7.10;99.90;;;;;;4804863;29;20474;-87
2022/05/08 01:43:36;;;;;;;2.22;0.93;;;6.90;99.90;;;;;;4812049;29;20134;-85
2022/05/08 01:46:03;;;;;;;5.10;1.20;;;7.80;99.90;;;;;;4807972;29;20591;-85
2022/05/08 01:48:30;;;;;;;3.75;0.80;;;6.50;99.90;;;;;;4813596;29;20062;-86
2022/05/08 01:50:57;;;;;;;2.33;0.80;;;6.50;99.90;;;;;;4792167;29;20132;-86
2022/05/08 01:53:33;;;;;;;5.22;0.80;;;7.50;99.90;;;;;;4813810;29;20051;-85
2022/05/08 01:56:00;;;;;;;5.35;0.80;;;6.90;99.90;;;;;;4814393;29;20097;-85
2022/05/08 01:58:28;;;;;;;4.95;0.82;;;6.70;99.90;;;;;;4814832;29;20504;-85
2022/05/08 02:00:55;;;;;;;5.28;1.10;;;6.80;99.90;;;;;;4792106;29;20066;-86
2022/05/08 02:03:23;;;;;;;6.63;1.33;;;7.60;99.90;;;;;;4791004;29;20059;-87
2022/05/08 02:05:49;;;;;;;3.03;1.05;;;7.40;99.90;;;;;;4812904;29;20415;-87
2022/05/08 02:08:15;;;;;;;2.75;1.00;;;6.00;99.90;;;;;;4808925;29;20115;-88
2022/05/08 02:10:41;;;;;;;3.28;0.80;;;6.70;99.90;;;;;;4808216;29;20065;-86
2022/05/08 02:13:09;;;;;;;7.25;1.00;;;7.20;99.90;;;;;;4807169;29;20126;-85
2022/05/08 02:15:35;;;;;;;1.42;0.90;;;7.30;99.90;;;;;;4807667;29;20138;-87
2022/05/08 02:18:05;;;;;;;5.53;0.95;;;6.70;99.90;;;;;;4814433;29;20074;-88
2022/05/08 02:20:31;;;;;;;2.22;0.60;;;6.70;99.90;;;;;;4808058;29;20047;-87
2022/05/08 02:22:57;;;;;;;2.50;0.70;;;7.20;99.90;;;;;;4807472;29;20146;-86
2022/05/08 02:25:23;;;;;;;1.17;0.60;;;6.40;99.90;;;;;;4807196;29;20084;-88
2022/05/08 02:27:49;;;;;;;3.30;1.05;;;6.90;99.90;;;;;;4807232;29;20047;-88
2022/05/08 02:30:17;;;;;;;5.68;0.65;;;6.60;99.90;;;;;;4807381;29;20063;-85
2022/05/08 02:32:43;;;;;;;9.05;1.20;;;6.70;99.90;;;;;;4791070;29;20540;-87
2022/05/08 02:35:10;;;;;;;5.20;0.80;;;6.70;99.90;;;;;;4806964;29;20110;-85
2022/05/08 02:37:37;;;;;;;3.45;0.70;;;7.50;99.90;;;;;;4814118;29;20082;-86
2022/05/08 02:40:05;;;;;;;4.75;0.88;;;7.70;99.90;;;;;;4807629;29;20497;-87
2022/05/08 02:42:31;;;;;;;3.22;0.60;;;6.60;99.90;;;;;;4806700;29;20390;-87
2022/05/08 02:44:56;;;;;;;2.35;0.60;;;7.00;99.90;;;;;;4811871;29;20127;-85
2022/05/08 02:47:22;;;;;;;2.50;0.90;;;7.50;99.90;;;;;;4808844;29;20090;-86
2022/05/08 02:49:48;;;;;;;3.50;0.80;;;6.90;99.90;;;;;;4814597;29;20055;-87
2022/05/08 02:52:13;;;;;;;2.20;0.70;;;7.00;99.90;;;;;;4807572;29;20051;-87
2022/05/08 02:54:39;;;;;;;5.35;0.68;;;7.20;99.90;;;;;;4808392;29;20062;-86
2022/05/08 02:59:50;;;;;;;2.67;0.50;;;6.50;99.90;;;;;;4799557;29;20115;-86
2022/05/08 03:02:16;;;;;;;2.45;0.70;;;7.00;99.90;;;;;;4806709;29;20145;-85
2022/05/08 03:04:42;;;;;;;6.18;0.90;;;7.00;99.90;;;;;;4806351;29;20059;-86
2022/05/08 03:07:08;;;;;;;4.60;0.63;;;6.90;99.90;;;;;;4806623;29;20112;-85
2022/05/08 03:09:34;;;;;;;3.42;1.30;;;7.20;99.90;;;;;;4789974;29;20051;-85
2022/05/08 03:11:59;;;;;;;2.08;0.70;;;6.00;99.90;;;;;;4806394;29;20439;-85
2022/05/08 03:14:25;;;;;;;4.28;0.80;;;6.80;99.90;;;;;;4813511;29;20520;-85
2022/05/08 03:16:51;;;;;;;4.43;0.60;;;6.50;99.90;;;;;;4790363;29;20055;-86
2022/05/08 03:19:19;;;;;;;5.13;0.93;;;7.10;99.90;;;;;;4795624;29;20400;-85
2022/05/08 03:21:48;;;;;;;3.78;0.60;;;7.10;99.90;;;;;;4791570;29;20050;-86
2022/05/08 03:24:14;;;;;;;2.67;0.70;;;6.50;99.90;;;;;;4806439;29;20138;-86
2022/05/08 03:26:40;;;;;;;1.15;0.50;;;6.90;99.90;;;;;;4806112;29;20139;-86
2022/05/08 03:29:07;;;;;;;4.15;0.70;;;7.10;99.90;;;;;;4790008;29;20139;-86
2022/05/08 03:31:34;;;;;;;5.90;0.80;;;7.10;99.90;;;;;;4790342;29;20400;-85
2022/05/08 03:33:59;;;;;;;2.47;1.10;;;6.60;99.90;;;;;;4806330;29;20936;-87
2022/05/08 03:36:25;;;;;;;1.85;0.70;;;6.10;99.90;;;;;;4798011;29;20062;-86
2022/05/08 03:38:51;;;;;;;5.85;0.75;;;6.60;99.90;;;;;;4800936;29;20063;-88
2022/05/08 03:41:17;;;;;;;1.38;0.35;;;6.00;99.90;;;;;;4810139;29;20126;-91
2022/05/08 03:43:46;;;;;;;2.05;0.50;;;6.50;99.90;;;;;;4790970;29;20058;-89
2022/05/08 03:46:13;;;;;;;1.65;0.50;;;7.60;99.90;;;;;;4785769;29;20055;-89
2022/05/08 03:48:39;;;;;;;1.20;0.40;;;7.10;99.90;;;;;;4791286;29;20062;-89
2022/05/08 03:51:05;;;;;;;5.20;0.50;;;7.50;99.90;;;;;;4798467;29;20058;-88
2022/05/08 03:53:31;;;;;;;1.45;0.60;;;6.20;99.90;;;;;;4807786;29;20470;-89
2022/05/08 03:55:57;;;;;;;4.53;0.70;;;6.80;99.90;;;;;;4791627;29;20059;-87
2022/05/08 03:58:22;;;;;;;3.88;0.70;;;7.00;99.90;;;;;;4817880;29;20157;-88
2022/05/08 04:00:48;;;;;;;4.53;0.70;;;6.80;99.90;;;;;;4808722;29;20061;-89
2022/05/08 04:03:14;;;;;;;1.05;0.60;;;6.80;99.90;;;;;;4812070;29;20046;-89
2022/05/08 04:05:39;;;;;;;3.30;0.52;;;6.30;99.90;;;;;;4806391;29;20247;-88
2022/05/08 04:08:05;;;;;;;1.50;0.50;;;6.90;99.90;;;;;;4795536;29;20137;-89
2022/05/08 04:10:33;;;;;;;4.53;0.60;;;6.20;99.90;;;;;;4811157;29;20058;-90
2022/05/08 04:13:00;;;;;;;1.77;0.43;;;6.10;99.90;;;;;;4789732;29;20058;-88
2022/05/08 04:18:10;;;;;;;1.52;0.50;;;6.30;99.90;;;;;;4798416;29;20078;-86
2022/05/08 04:20:37;;;;;;;2.60;0.80;;;5.70;99.90;;;;;;4796421;29;20086;-87
2022/05/08 04:25:51;;;;;;;0.70;0.50;;;6.20;99.90;;;;;;4806076;29;20051;-87
2022/05/08 04:28:19;;;;;;;2.17;0.55;;;6.70;99.90;;;;;;4798831;29;20055;-87
2022/05/08 04:30:45;;;;;;;3.25;0.77;;;6.10;99.90;;;;;;4805351;29;20587;-87
2022/05/08 04:33:10;;;;;;;1.52;0.55;;;6.10;99.90;;;;;;4788801;29;20094;-88
2022/05/08 04:35:36;;;;;;;4.82;0.57;;;7.20;99.90;;;;;;4805730;29;20058;-88
2022/05/08 04:38:02;;;;;;;3.88;0.73;;;7.30;99.90;;;;;;4805085;29;20390;-88
2022/05/08 04:40:28;;;;;;;5.78;0.80;;;6.30;99.90;;;;;;4811013;29;20082;-88
2022/05/08 04:42:53;;;;;;;2.83;0.60;;;6.90;99.90;;;;;;4805062;29;20125;-87
2022/05/08 04:45:19;;;;;;;2.25;0.80;;;6.70;99.90;;;;;;4792206;29;20488;-89
2022/05/08 04:47:44;;;;;;;1.00;0.50;;;6.40;99.90;;;;;;4809143;29;20100;-86
2022/05/08 04:50:10;;;;;;;2.63;0.60;;;6.60;99.90;;;;;;4807659;29;20059;-87
2022/05/08 04:52:36;;;;;;;2.65;0.60;;;7.00;99.90;;;;;;4788788;29;20055;-87
2022/05/08 04:55:03;;;;;;;2.92;1.15;;;7.50;99.90;;;;;;4789157;29;20065;-87
2022/05/08 04:57:30;;;;;;;2.70;1.10;;;6.90;99.90;;;;;;4804998;29;20421;-86
2022/05/08 04:59:56;;;;;;;1.20;0.43;;;7.00;99.90;;;;;;4774566;29;20073;-86
2022/05/08 05:02:22;;;;;;;2.65;0.63;;;7.70;99.90;;;;;;4812109;29;20493;-87
2022/05/08 05:04:47;;;;;;;6.35;1.23;;;7.20;99.90;;;;;;4805355;29;20062;-87
2022/05/08 05:07:13;;;;;;;3.05;0.77;;;6.70;99.90;;;;;;4804874;29;20058;-86
2022/05/08 05:09:39;;;;;;;3.22;0.60;;;7.40;99.90;;;;;;4804675;29;20057;-86
2022/05/08 05:12:05;;;;;;;4.53;1.10;;;8.00;99.90;;;;;;4788320;29;20062;-86
2022/05/08 05:14:34;;;;;;;4.10;0.80;;;7.50;99.90;;;;;;4805450;29;20408;-88
2022/05/08 05:17:00;;;;;;;3.65;0.80;;;8.20;99.90;;;;;;4788864;29;20204;-87
2022/05/08 05:19:26;;;;;;;2.83;0.70;;;7.60;99.90;;;;;;4794300;29;20062;-86
2022/05/08 05:21:52;;;;;;;7.05;1.15;;;8.50;99.90;;;;;;4812674;29;20059;-87
2022/05/08 05:24:18;;;;;;;1.60;0.57;;;8.00;99.90;;;;;;4808765;29;20059;-87
2022/05/08 05:26:44;;;;;;;4.32;0.70;;;8.20;99.90;;;;;;4796400;29;20063;-86
2022/05/08 05:29:10;;;;;;;1.42;0.50;;;8.20;99.90;;;;;;4810474;29;20062;-86
2022/05/08 05:31:36;;;;;;;1.15;0.57;;;8.30;99.90;;;;;;4814900;29;20462;-86
2022/05/08 05:34:02;;;;;;;2.15;0.80;;;8.60;99.90;;;;;;4808141;29;20085;-86
2022/05/08 05:36:27;;;;;;;3.25;0.98;;;8.40;99.90;;;;;;4815601;29;20058;-86
2022/05/08 05:38:53;;;;;;;5.30;1.25;;;9.70;99.90;;;;;;4791787;29;20385;-87
2022/05/08 05:41:19;;;;;;;4.22;0.60;;;7.90;99.90;;;;;;4807662;29;20058;-86
2022/05/08 05:43:44;;;;;;;1.70;0.63;;;9.30;99.90;;;;;;4811975;29;20123;-87
2022/05/08 05:48:54;;;;;;;3.25;0.50;;;9.50;99.90;;;;;;4802834;29;20111;-87
2022/05/08 05:51:20;;;;;;;3.63;0.95;;;9.10;99.90;;;;;;4798469;29;20458;-88
2022/05/08 05:53:45;;;;;;;5.07;0.50;;;9.10;99.90;;;;;;4807871;29;20066;-88
2022/05/08 05:56:11;;;;;;;4.70;0.75;;;9.00;99.90;;;;;;4797109;29;20054;-87
2022/05/08 05:58:37;;;;;;;7.07;0.88;;;9.60;99.90;;;;;;4793693;29;20058;-87
2022/05/08 06:01:02;;;;;;;4.43;0.60;;;9.00;99.90;;;;;;4817303;29;20093;-86
2022/05/08 06:03:28;;;;;;;6.22;0.60;;;9.10;99.90;;;;;;4798185;29;20098;-86
2022/05/08 06:05:54;;;;;;;3.95;1.00;;;10.30;99.90;;;;;;4813641;29;20055;-86
2022/05/08 06:08:19;;;;;;;5.97;0.60;;;9.40;99.90;;;;;;4791573;29;20051;-86
2022/05/08 06:10:46;;;;;;;2.70;0.60;;;9.60;99.90;;;;;;4815254;29;20135;-88
2022/05/08 06:13:12;;;;;;;2.42;0.70;;;9.80;99.90;;;;;;4807713;29;20054;-87
2022/05/08 06:15:38;;;;;;;2.13;0.98;;;10.50;99.90;;;;;;4807304;29;20742;-89
2022/05/08 06:18:04;;;;;;;3.92;0.50;;;10.00;99.90;;;;;;4794276;29;20061;-85
2022/05/08 06:20:32;;;;;;;8.52;0.73;;;9.30;99.90;;;;;;4791975;29;20378;-87
2022/05/08 06:22:58;;;;;;;5.40;1.08;;;10.10;99.90;;;;;;4797129;29;20112;-86
2022/05/08 06:25:24;;;;;;;7.47;1.33;;;10.10;99.90;;;;;;4806927;29;20050;-86
2022/05/08 06:27:50;;;;;;;2.45;0.52;;;9.90;99.90;;;;;;4800554;29;20058;-85
2022/05/08 06:30:15;;;;;;;2.58;0.70;;;9.80;99.90;;;;;;4806721;29;20058;-87
2022/05/08 06:32:41;;;;;;;2.55;0.60;;;9.80;99.90;;;;;;4790886;29;20058;-86
2022/05/08 06:35:07;;;;;;;6.63;1.73;;;10.00;99.90;;;;;;4792184;29;20072;-87
2022/05/08 06:37:33;;;;;;;1.25;0.65;;;9.60;99.90;;;;;;4790347;29;20082;-83
2022/05/08 06:39:59;;;;;;;3.22;0.77;;;10.40;99.90;;;;;;4790819;29;20097;-84
2022/05/08 06:42:24;;;;;;;4.38;0.70;;;10.30;99.90;;;;;;4790843;29;20404;-87
2022/05/08 06:44:50;;;;;;;3.28;0.60;;;10.70;99.90;;;;;;4806623;29;20485;-86
2022/05/08 06:47:16;;;;;;;7.03;1.00;;;10.50;99.90;;;;;;4791602;29;20059;-89
2022/05/08 06:49:41;;;;;;;6.50;0.90;;;10.80;99.90;;;;;;4813636;29;20086;-87
2022/05/08 06:52:07;;;;;;;4.60;0.85;;;11.60;99.90;;;;;;4807390;29;20462;-87
2022/05/08 06:54:33;;;;;;;2.35;0.60;;;10.90;99.90;;;;;;4809813;29;20055;-88
2022/05/08 06:56:59;;;;;;;7.20;0.80;;;11.00;99.90;;;;;;4807629;29;20046;-87
2022/05/08 07:02:11;;;;;;;2.13;0.60;;;10.60;99.90;;;;;;4801171;29;20047;-88
2022/05/08 07:04:38;;;;;;;7.97;1.27;;;10.50;99.90;;;;;;4806523;29;20459;-88
2022/05/08 07:07:04;;;;;;;7.53;0.77;;;10.60;99.90;;;;;;4807393;29;20156;-88
2022/05/08 07:09:29;;;;;;;4.65;1.55;;;10.60;99.90;;;;;;4806611;29;20043;-88
2022/05/08 07:11:56;;;;;;;4.57;0.57;;;10.70;99.90;;;;;;4806827;29;20557;-86
2022/05/08 07:14:21;;;;;;;5.32;0.70;;;11.10;99.90;;;;;;4792442;29;20078;-84
2022/05/08 07:16:47;;;;;;;3.30;0.63;;;10.50;99.90;;;;;;4806969;29;20489;-85
2022/05/08 07:19:13;;;;;;;4.05;0.70;;;10.80;99.90;;;;;;4808772;29;20411;-84
2022/05/08 07:21:38;;;;;;;4.05;0.90;;;11.30;99.90;;;;;;4813320;29;20049;-85
2022/05/08 07:24:05;;;;;;;4.97;0.93;;;11.20;99.90;;;;;;4797166;29;20133;-84
2022/05/08 07:26:31;;;;;;;5.72;0.57;;;11.00;99.90;;;;;;4807026;29;20144;-88
2022/05/08 07:28:57;;;;;;;4.50;0.80;;;11.10;99.90;;;;;;4791464;29;20086;-89
2022/05/08 07:31:24;;;;;;;5.65;0.90;;;11.20;99.90;;;;;;4790735;29;20472;-88
2022/05/08 07:36:12;;;;;;;4.47;0.60;;;11.80;99.90;;;;;;4797763;29;20457;-88
2022/05/08 07:36:36;;;;;;;3.10;0.50;;;11.70;99.90;;;;;;4806749;29;20131;-87
2022/05/08 07:39:02;;;;;;;4.20;0.73;;;11.70;99.90;;;;;;4814264;29;20054;-87
2022/05/08 07:41:28;;;;;;;4.50;0.77;;;12.10;99.90;;;;;;4806502;29;20100;-89
2022/05/08 07:43:53;;;;;;;5.00;0.70;;;12.10;99.90;;;;;;4791736;29;20096;-88
2022/05/08 07:46:19;;;;;;;8.73;0.93;;;12.30;99.90;;;;;;4799476;29;20055;-90
2022/05/08 07:48:45;;;;;;;4.40;0.75;;;12.40;99.90;;;;;;4800234;29;20062;-89
2022/05/08 07:51:11;;;;;;;3.40;0.60;;;12.40;99.90;;;;;;4806669;29;20089;-84
2022/05/08 07:53:37;;;;;;;7.45;0.80;;;12.30;99.90;;;;;;4813220;29;20121;-84
2022/05/08 07:56:03;;;;;;;5.32;0.68;;;13.00;99.90;;;;;;4812915;29;20111;-84
2022/05/08 07:58:31;;;;;;;1.88;0.70;;;12.60;99.90;;;;;;4810316;29;20046;-85
2022/05/08 08:00:57;;;;;;;6.60;0.80;;;12.70;99.90;;;;;;4816749;29;20054;-87
2022/05/08 08:03:25;;;;;;;3.83;0.80;;;13.00;99.90;;;;;;4812569;29;20130;-88
2022/05/08 08:05:52;;;;;;;9.45;0.60;;;13.10;99.90;;;;;;4805681;29;20568;-89
2022/05/08 08:08:21;;;;;;;4.80;1.00;;;13.50;99.90;;;;;;4806021;29;20519;-88
2022/05/08 08:10:47;;;;;;;8.90;0.73;;;13.30;99.90;;;;;;4805721;29;20108;-86
2022/05/08 08:13:13;;;;;;;4.55;0.80;;;13.30;99.90;;;;;;4805253;29;20062;-87
2022/05/08 08:15:39;;;;;;;2.70;0.70;;;13.30;99.90;;;;;;4805353;29;20142;-84
2022/05/08 08:18:06;;;;;;;11.40;1.00;;;13.30;99.90;;;;;;4789681;29;20081;-88
2022/05/08 08:20:31;;;;;;;5.70;0.63;;;13.40;99.90;;;;;;4805322;29;20464;-84
2022/05/08 08:22:57;;;;;;;2.63;0.70;;;13.50;99.90;;;;;;4789387;29;20146;-89
2022/05/08 08:25:23;;;;;;;4.57;0.50;;;13.50;99.90;;;;;;4805797;29;20400;-89
2022/05/08 08:27:48;;;;;;;2.97;0.60;;;13.50;99.90;;;;;;4813425;29;20092;-86
2022/05/08 08:30:14;;;;;;;7.70;0.60;;;13.50;99.90;;;;;;4790099;29;20439;-89
2022/05/08 08:32:39;;;;;;;5.03;0.70;;;13.80;99.90;;;;;;4796180;29;20073;-90
2022/05/08 08:35:06;;;;;;;6.30;0.90;;;14.10;99.90;;;;;;4809439;29;20054;-91
2022/05/08 08:37:32;;;;;;;5.13;1.00;;;13.90;99.90;;;;;;4815312;29;20055;-88
2022/05/08 08:39:57;;;;;;;4.43;0.65;;;13.70;99.90;;;;;;4790220;29;20070;-88
2022/05/08 08:42:30;;;;;;;3.15;0.70;;;13.70;99.90;;;;;;4815516;29;20051;-86
2022/05/08 08:47:59;;;;;;;6.30;0.98;;;14.20;99.90;;;;;;4805384;29;20098;-89
2022/05/08 08:50:27;;;;;;;1.90;0.60;;;14.10;99.90;;;;;;4803831;29;20054;-87
2022/05/08 08:52:59;;;;;;;4.00;0.50;;;14.10;99.90;;;;;;4807305;29;20412;-86
2022/05/08 08:55:24;;;;;;;6.15;0.93;;;14.20;99.90;;;;;;4795007;29;20058;-86
2022/05/08 08:57:50;;;;;;;4.68;1.10;;;14.30;99.90;;;;;;4814555;29;20185;-85
2022/05/08 09:00:21;;;;;;;4.80;0.60;;;14.50;99.90;;;;;;4818316;29;20055;-87
2022/05/08 09:02:48;;;;;;;9.32;0.60;;;14.60;99.90;;;;;;4811590;29;20050;-88
2022/05/08 09:05:14;;;;;;;6.13;0.70;;;14.80;99.90;;;;;;4794368;29;20105;-85
2022/05/08 09:07:45;;;;;;;8.10;0.60;;;15.10;99.90;;;;;;4789141;29;20054;-84
2022/05/08 09:10:26;;;;;;;6.53;0.70;;;15.00;99.30;;;;;;4794200;29;20103;-85
2022/05/08 09:12:52;;;;;;;4.63;0.70;;;15.00;99.90;;;;;;4810618;29;20581;-84
2022/05/08 09:15:25;;;;;;;3.70;0.77;;;15.00;99.90;;;;;;4820295;29;20133;-86
2022/05/08 09:17:59;;;;;;;1.20;0.47;;;15.10;99.90;;;;;;4794588;29;20062;-85
2022/05/08 09:20:39;;;;;;;6.28;0.70;;;15.10;98.20;;;;;;4810473;29;20061;-85
2022/05/08 09:23:14;;;;;;;7.90;0.93;;;15.30;99.90;;;;;;4817587;29;20115;-84
2022/05/08 09:25:59;;;;;;;3.47;0.65;;;15.30;98.70;;;;;;4794650;29;20051;-86
2022/05/08 09:28:25;;;;;;;3.25;0.90;;;15.30;99.20;;;;;;4817855;29;20059;-86
2022/05/08 09:30:57;;;;;;;5.05;0.77;;;15.30;99.10;;;;;;4811443;29;20207;-84
2022/05/08 09:33:27;;;;;;;5.57;0.75;;;15.40;97.40;;;;;;4794344;29;20054;-85
2022/05/08 09:35:54;;;;;;;6.80;1.50;;;15.50;96.60;;;;;;4817787;29;20121;-85
2022/05/08 09:38:20;;;;;;;5.30;0.68;;;15.60;97.50;;;;;;4817689;29;20047;-85
2022/05/08 09:41:03;;;;;;;3.85;0.57;;;15.30;95.40;;;;;;4810643;29;20195;-87
2022/05/08 09:43:29;;;;;;;3.13;0.40;;;15.40;98.00;;;;;;4810663;29;20059;-86
2022/05/08 09:46:03;;;;;;;6.32;0.80;;;15.80;98.70;;;;;;4794534;29;20047;-85
2022/05/08 09:48:29;;;;;;;2.88;0.75;;;15.90;98.70;;;;;;4794277;29;20508;-84
2022/05/08 09:51:00;;;;;;;4.45;0.80;;;15.80;97.50;;;;;;4810320;29;20066;-84
2022/05/08 09:53:28;;;;;;;3.42;0.75;;;16.00;94.70;;;;;;4794782;29;20058;-84
2022/05/08 09:55:58;;;;;;;3.80;0.60;;;15.90;94.90;;;;;;4793528;29;20058;-85
2022/05/08 09:58:25;;;;;;;4.03;0.68;;;15.90;98.40;;;;;;4810855;29;20592;-86
2022/05/08 10:00:52;;;;;;;2.78;0.60;;;16.10;97.80;;;;;;4779507;29;20119;-86
2022/05/08 10:03:19;;;;;;;6.40;0.68;;;16.30;96.70;;;;;;4810817;29;20094;-85
2022/05/08 10:05:45;;;;;;;2.60;0.60;;;16.20;97.60;;;;;;4807374;29;20437;-85
2022/05/08 10:08:17;;;;;;;4.43;0.55;;;16.30;98.60;;;;;;4808368;29;20430;-85
2022/05/08 10:16:49;;;;;;;4.10;1.02;;;16.40;95.90;;;;;;4808313;29;20057;-86
2022/05/08 10:19:24;;;;;;;6.80;0.80;;;16.50;98.10;;;;;;4790885;29;20058;-86
2022/05/08 10:22:10;;;;;;;7.60;0.75;;;16.40;96.80;;;;;;4803002;29;20382;-86
2022/05/08 10:24:47;;;;;;;5.80;0.95;;;16.70;96.40;;;;;;4789982;30;20067;-85
2022/05/08 10:27:32;;;;;;;1.67;0.50;;;16.40;95.00;;;;;;4785438;30;20648;-85
2022/05/08 10:29:58;;;;;;;7.77;1.23;;;16.40;98.00;;;;;;4789156;30;20059;-85
2022/05/08 10:32:38;;;;;;;3.20;0.80;;;16.40;89.90;;;;;;4805083;29;20054;-87
2022/05/08 10:35:09;;;;;;;3.83;0.65;;;16.40;95.20;;;;;;4805694;29;20517;-87
2022/05/08 10:38:16;;;;;;;6.35;0.70;;;16.50;95.00;;;;;;4807790;29;20046;-87
2022/05/08 10:40:43;;;;;;;5.90;0.90;;;16.70;94.00;;;;;;4738469;30;20532;-86
2022/05/08 10:43:14;;;;;;;3.63;0.70;;;16.60;93.00;;;;;;4737058;30;20126;-86
2022/05/08 10:45:43;;;;;;;3.97;0.60;;;16.60;92.20;;;;;;4728123;30;20121;-86
2022/05/08 10:48:14;;;;;;;3.22;0.73;;;16.80;91.30;;;;;;4718991;30;20052;-87
2022/05/08 10:50:53;;;;;;;3.05;0.52;;;16.80;96.00;;;;;;4725077;30;20067;-85
2022/05/08 10:53:32;;;;;;;7.47;0.95;;;17.00;96.70;;;;;;4733550;30;20131;-86
2022/05/08 10:56:09;;;;;;;6.05;0.70;;;16.90;92.30;;;;;;4728195;30;20060;-86
2022/05/08 10:58:37;;;;;;;5.00;0.60;;;16.90;92.80;;;;;;4725442;30;20442;-86
2022/05/08 11:01:04;;;;;;;5.57;1.20;;;17.00;92.60;;;;;;4733502;30;20060;-86
2022/05/08 11:03:31;;;;;;;4.20;0.70;;;17.10;92.70;;;;;;4739925;30;20459;-86
2022/05/08 11:05:58;;;;;;;2.40;0.52;;;17.30;94.00;;;;;;4732535;30;20186;-86
2022/05/08 11:08:29;;;;;;;5.30;0.70;;;17.00;93.90;;;;;;4731998;30;20053;-87
2022/05/08 11:11:10;;;;;;;5.97;1.00;;;17.00;90.70;;;;;;4721193;30;20068;-85
2022/05/08 11:13:47;;;;;;;1.85;0.60;;;16.90;94.60;;;;;;4732118;30;20059;-86
2022/05/08 11:16:33;;;;;;;3.97;0.80;;;16.80;90.80;;;;;;4718666;30;20158;-88
2022/05/08 11:19:00;;;;;;;2.70;0.57;;;16.90;91.10;;;;;;4805917;29;20058;-88
2022/05/08 11:21:26;;;;;;;3.65;0.90;;;17.30;91.40;;;;;;4806563;29;20051;-87
2022/05/08 11:23:54;;;;;;;3.83;0.65;;;17.30;88.40;;;;;;4797390;29;20059;-87
2022/05/08 11:26:28;;;;;;;2.70;1.30;;;17.40;89.50;;;;;;4807499;29;20054;-88
2022/05/08 11:28:55;;;;;;;3.47;0.60;;;17.00;91.60;;;;;;4806384;29;20110;-87
2022/05/08 11:31:24;;;;;;;4.43;0.60;;;17.10;92.00;;;;;;4806683;29;20055;-87
2022/05/08 11:36:38;;;;;;;3.08;0.85;;;17.20;92.50;;;;;;4805278;29;20058;-88
2022/05/08 11:39:06;;;;;;;5.03;0.98;;;17.30;91.00;;;;;;4795832;29;20196;-86
2022/05/08 11:41:36;;;;;;;3.33;0.63;;;17.00;91.80;;;;;;4821570;29;20047;-87
2022/05/08 11:44:24;;;;;;;6.53;0.77;;;17.30;90.40;;;;;;4779623;29;20405;-88
2022/05/08 11:46:55;;;;;;;7.50;0.80;;;17.30;90.50;;;;;;4802625;29;20058;-86
2022/05/08 11:49:26;;;;;;;3.08;0.70;;;17.10;90.90;;;;;;4789746;29;20067;-87
2022/05/08 11:51:57;;;;;;;5.40;0.65;;;17.40;80.80;;;;;;4805933;29;20413;-88
2022/05/08 11:54:32;;;;;;;4.82;0.60;;;17.20;92.20;;;;;;4813002;29;20104;-86
2022/05/08 11:57:18;;;;;;;3.22;0.50;;;17.40;92.90;;;;;;4805776;29;20130;-86
2022/05/08 11:59:47;;;;;;;4.78;0.80;;;17.50;90.30;;;;;;4813010;29;20408;-88
2022/05/08 12:02:13;;;;;;;2.47;0.50;;;17.60;92.90;;;;;;4805764;29;20578;-86
2022/05/08 12:04:41;;;;;;;3.05;0.90;;;18.00;91.60;;;;;;4811940;29;20057;-86
2022/05/08 12:07:08;;;;;;;2.28;0.77;;;17.70;79.00;;;;;;4789303;29;20058;-86
2022/05/08 12:09:55;;;;;;;1.40;0.50;;;17.40;77.10;;;;;;4789018;29;20055;-87
2022/05/08 12:12:29;;;;;;;4.18;0.82;;;17.20;88.40;;;;;;4813166;29;20078;-87
2022/05/08 12:15:07;;;;;;;3.88;0.70;;;17.60;88.80;;;;;;4805399;29;20058;-86
2022/05/08 12:17:42;;;;;;;1.70;0.40;;;17.70;90.90;;;;;;4790004;29;20059;-88
2022/05/08 12:20:09;;;;;;;4.78;0.60;;;17.80;90.60;;;;;;4798985;29;20527;-87
2022/05/08 12:22:35;;;;;;;4.93;0.60;;;17.60;95.50;;;;;;4805292;29;20061;-88
2022/05/08 12:25:03;;;;;;;2.05;0.45;;;17.60;90.60;;;;;;4805119;29;20058;-87
2022/05/08 12:27:29;;;;;;;4.78;0.63;;;17.80;92.60;;;;;;4805356;29;20047;-87
2022/05/08 12:29:55;;;;;;;3.13;0.57;;;18.00;89.20;;;;;;4789061;29;20545;-86
2022/05/08 12:32:26;;;;;;;5.05;0.80;;;18.10;89.00;;;;;;4811898;29;20047;-88
2022/05/08 12:34:53;;;;;;;5.15;0.82;;;18.30;85.20;;;;;;4789273;29;20061;-86
2022/05/08 12:37:20;;;;;;;4.45;0.75;;;18.30;92.10;;;;;;4782119;29;20051;-86
2022/05/08 12:39:46;;;;;;;4.88;0.95;;;18.00;88.10;;;;;;4805216;29;20544;-86
2022/05/08 12:42:12;;;;;;;2.80;0.70;;;18.20;90.10;;;;;;4774309;29;20133;-86
2022/05/08 12:44:38;;;;;;;1.20;0.40;;;18.10;84.20;;;;;;4805029;29;20051;-86
2022/05/08 12:47:09;;;;;;;5.55;0.90;;;18.20;88.00;;;;;;4804838;29;20065;-87
2022/05/08 12:49:36;;;;;;;7.00;1.25;;;18.20;87.30;;;;;;4773928;29;20455;-87
2022/05/08 12:52:03;;;;;;;4.88;1.15;;;18.40;85.70;;;;;;4805048;29;20151;-86
2022/05/08 12:54:29;;;;;;;4.18;0.55;;;18.70;83.20;;;;;;4789559;29;20050;-87
2022/05/08 12:56:55;;;;;;;8.77;1.17;;;18.20;85.10;;;;;;4805036;29;20422;-88
2022/05/08 13:02:05;;;;;;;4.60;1.13;;;18.20;85.70;;;;;;4804626;29;20074;-87
2022/05/08 13:04:31;;;;;;;5.20;0.65;;;17.90;83.50;;;;;;4788564;29;20054;-87
2022/05/08 13:06:57;;;;;;;5.75;0.90;;;17.80;89.30;;;;;;4805000;29;20063;-86
2022/05/08 13:09:23;;;;;;;7.35;0.90;;;17.60;90.10;;;;;;4795571;29;20139;-87
2022/05/08 13:11:48;;;;;;;2.75;0.52;;;17.70;90.20;;;;;;4788924;29;20058;-87
2022/05/08 13:14:14;;;;;;;6.93;0.75;;;17.70;86.30;;;;;;4804758;29;20129;-86
2022/05/08 13:16:41;;;;;;;8.07;0.73;;;17.70;85.90;;;;;;4804882;29;20412;-86
2022/05/08 13:19:06;;;;;;;5.05;0.57;;;17.70;87.90;;;;;;4804969;29;20390;-87
2022/05/08 13:21:32;;;;;;;4.22;0.68;;;18.00;89.60;;;;;;4789207;29;20051;-86
2022/05/08 13:23:59;;;;;;;3.63;0.63;;;18.00;87.20;;;;;;4788401;29;20134;-86